createdAt,value
2018-09-12T00:00:22.610Z,996.18
2018-09-12T00:01:22.538Z,996.16
2018-09-12T00:02:22.466Z,996.14
2018-09-12T00:03:22.392Z,996.13
2018-09-12T00:04:22.326Z,996.10
2018-09-12T00:05:22.247Z,996.06
2018-09-12T00:06:22.177Z,996.05
2018-09-12T00:07:22.103Z,996.02
2018-09-12T00:08:22.030Z,996.03
2018-09-12T00:09:21.958Z,996.01
2018-09-12T00:10:21.885Z,996.00
2018-09-12T00:11:21.812Z,995.98
2018-09-12T00:12:21.766Z,996.00
2018-09-12T00:13:21.667Z,995.96
2018-09-12T00:14:21.624Z,995.93
2018-09-12T00:16:21.598Z,995.92
2018-09-12T00:17:21.377Z,995.92
2018-09-12T00:18:21.305Z,995.91
2018-09-12T00:19:21.231Z,995.87
2018-09-12T00:20:21.159Z,995.86
2018-09-12T00:21:21.085Z,995.87
2018-09-12T00:22:21.014Z,995.88
2018-09-12T00:23:20.945Z,995.86
2018-09-12T00:24:20.870Z,995.82
2018-09-12T00:25:20.796Z,995.83
2018-09-12T00:26:20.723Z,995.84
2018-09-12T00:27:20.649Z,995.81
2018-09-12T00:28:20.577Z,995.83
2018-09-12T00:29:20.505Z,995.82
2018-09-12T00:30:20.431Z,995.80
2018-09-12T00:31:20.358Z,995.80
2018-09-12T00:32:20.286Z,995.81
2018-09-12T00:33:20.213Z,995.81
2018-09-12T00:34:20.140Z,995.77
2018-09-12T00:35:20.067Z,995.78
2018-09-12T00:36:19.994Z,995.79
2018-09-12T00:37:19.922Z,995.78
2018-09-12T00:38:19.851Z,995.80
2018-09-12T00:39:19.776Z,995.79
2018-09-12T00:40:19.705Z,995.79
2018-09-12T00:41:19.631Z,995.79
2018-09-12T00:42:19.557Z,995.81
2018-09-12T00:43:19.485Z,995.77
2018-09-12T00:44:19.413Z,995.79
2018-09-12T00:45:19.340Z,995.77
2018-09-12T00:46:19.267Z,995.78
2018-09-12T00:47:19.195Z,995.78
2018-09-12T00:48:19.125Z,995.77
2018-09-12T00:49:19.050Z,995.71
2018-09-12T00:50:18.978Z,995.72
2018-09-12T00:51:19.110Z,995.70
2018-09-12T00:52:18.833Z,995.68
2018-09-12T00:53:18.760Z,995.67
2018-09-12T00:54:18.688Z,995.67
2018-09-12T00:55:18.614Z,995.69
2018-09-12T00:56:18.542Z,995.66
2018-09-12T00:57:18.468Z,995.68
2018-09-12T00:58:18.398Z,995.64
2018-09-12T00:59:18.324Z,995.64
2018-09-12T01:00:18.250Z,995.67
2018-09-12T01:01:18.179Z,995.64
2018-09-12T01:02:18.105Z,995.67
2018-09-12T01:03:18.032Z,995.64
2018-09-12T01:04:17.959Z,995.64
2018-09-12T01:05:17.891Z,995.58
2018-09-12T01:06:17.814Z,995.61
2018-09-12T01:07:17.741Z,995.59
2018-09-12T01:08:17.669Z,995.56
2018-09-12T01:09:17.596Z,995.54
2018-09-12T01:10:17.525Z,995.53
2018-09-12T01:11:17.448Z,995.51
2018-09-12T01:12:17.378Z,995.50
2018-09-12T01:13:17.304Z,995.48
2018-09-12T01:14:17.232Z,995.45
2018-09-12T01:15:17.158Z,995.48
2018-09-12T01:16:17.085Z,995.44
2018-09-12T01:17:17.013Z,995.45
2018-09-12T01:18:16.940Z,995.44
2018-09-12T01:19:16.866Z,995.43
2018-09-12T01:20:16.797Z,995.41
2018-09-12T01:21:16.721Z,995.43
2018-09-12T01:22:16.699Z,995.46
2018-09-12T01:23:16.574Z,995.44
2018-09-12T01:24:16.503Z,995.48
2018-09-12T01:25:16.429Z,995.52
2018-09-12T01:26:16.356Z,995.52
2018-09-12T01:27:16.284Z,995.49
2018-09-12T01:28:16.210Z,995.49
2018-09-12T01:29:16.137Z,995.50
2018-09-12T01:30:16.064Z,995.49
2018-09-12T01:31:15.990Z,995.47
2018-09-12T01:32:15.917Z,995.49
2018-09-12T01:33:15.845Z,995.48
2018-09-12T01:34:15.773Z,995.52
2018-09-12T01:35:15.700Z,995.51
2018-09-12T01:36:15.628Z,995.54
2018-09-12T01:37:15.577Z,995.57
2018-09-12T01:38:15.480Z,995.58
2018-09-12T01:39:15.409Z,995.56
2018-09-12T01:40:15.335Z,995.53
2018-09-12T01:41:15.261Z,995.52
2018-09-12T01:42:15.188Z,995.50
2018-09-12T01:43:15.115Z,995.46
2018-09-12T01:44:15.244Z,995.48
2018-09-12T01:45:14.968Z,995.45
2018-09-12T01:46:14.897Z,995.41
2018-09-12T01:47:14.820Z,995.43
2018-09-12T01:48:14.753Z,995.43
2018-09-12T01:49:14.677Z,995.43
2018-09-12T01:50:14.935Z,995.43
2018-09-12T01:51:14.530Z,995.39
2018-09-12T01:52:14.455Z,995.37
2018-09-12T01:53:14.383Z,995.36
2018-09-12T01:54:14.513Z,995.37
2018-09-12T01:55:14.235Z,995.33
2018-09-12T01:56:14.164Z,995.35
2018-09-12T01:57:14.092Z,995.32
2018-09-12T01:58:14.017Z,995.29
2018-09-12T01:59:13.944Z,995.29
2018-09-12T02:00:13.895Z,995.29
2018-09-12T02:01:14.129Z,995.28
2018-09-12T02:02:13.724Z,995.26
2018-09-12T02:03:13.652Z,995.25
2018-09-12T02:04:13.601Z,995.31
2018-09-12T02:05:13.840Z,995.23
2018-09-12T02:06:13.435Z,995.22
2018-09-12T02:07:13.360Z,995.25
2018-09-12T02:08:13.284Z,995.21
2018-09-12T02:09:13.211Z,995.23
2018-09-12T02:10:13.137Z,995.23
2018-09-12T02:11:13.292Z,995.25
2018-09-12T02:12:13.015Z,995.29
2018-09-12T02:13:12.917Z,995.26
2018-09-12T02:14:12.873Z,995.23
2018-09-12T02:15:12.770Z,995.26
2018-09-12T02:16:12.698Z,995.28
2018-09-12T02:17:12.656Z,995.26
2018-09-12T02:18:12.552Z,995.25
2018-09-12T02:19:12.478Z,995.28
2018-09-12T02:20:12.405Z,995.21
2018-09-12T02:21:12.332Z,995.22
2018-09-12T02:22:12.462Z,995.25
2018-09-12T02:23:12.185Z,995.25
2018-09-12T02:24:12.112Z,995.23
2018-09-12T02:25:12.040Z,995.22
2018-09-12T02:26:11.967Z,995.25
2018-09-12T02:27:11.893Z,995.22
2018-09-12T02:28:11.820Z,995.23
2018-09-12T02:29:11.748Z,995.23
2018-09-12T02:30:11.675Z,995.26
2018-09-12T02:31:11.601Z,995.21
2018-09-12T02:32:11.532Z,995.22
2018-09-12T02:33:11.456Z,995.23
2018-09-12T02:34:11.384Z,995.19
2018-09-12T02:35:11.308Z,995.24
2018-09-12T02:36:11.265Z,995.18
2018-09-12T02:37:11.163Z,995.18
2018-09-12T02:38:11.113Z,995.18
2018-09-12T02:39:11.041Z,995.13
2018-09-12T02:40:10.974Z,995.14
2018-09-12T02:41:10.871Z,995.18
2018-09-12T02:42:10.796Z,995.12
2018-09-12T02:43:10.750Z,995.12
2018-09-12T02:44:10.649Z,995.10
2018-09-12T02:45:10.578Z,995.09
2018-09-12T02:46:10.504Z,995.07
2018-09-12T02:47:10.428Z,995.08
2018-09-12T02:48:10.355Z,995.08
2018-09-12T02:49:10.282Z,995.07
2018-09-12T02:50:10.216Z,995.05
2018-09-12T02:51:10.162Z,995.03
2018-09-12T02:52:10.062Z,995.06
2018-09-12T02:53:10.013Z,995.08
2018-09-12T02:54:09.915Z,995.04
2018-09-12T02:55:09.841Z,995.09
2018-09-12T02:56:09.767Z,995.09
2018-09-12T02:57:09.694Z,995.06
2018-09-12T02:58:09.625Z,995.04
2018-09-12T02:59:09.547Z,995.04
2018-09-12T03:00:09.475Z,995.04
2018-09-12T03:01:09.403Z,995.04
2018-09-12T03:02:09.331Z,995.04
2018-09-12T03:03:09.281Z,995.02
2018-09-12T03:04:09.181Z,995.02
2018-09-12T03:05:09.132Z,995.00
2018-09-12T03:06:09.059Z,995.00
2018-09-12T03:07:08.991Z,995.01
2018-09-12T03:08:08.887Z,995.03
2018-09-12T03:09:08.813Z,995.00
2018-09-12T03:10:08.768Z,994.98
2018-09-12T03:11:08.694Z,994.99
2018-09-12T03:12:08.625Z,994.99
2018-09-12T03:13:08.545Z,994.96
2018-09-12T03:14:08.448Z,994.90
2018-09-12T03:15:08.400Z,994.95
2018-09-12T03:16:08.334Z,994.94
2018-09-12T03:17:08.226Z,994.91
2018-09-12T03:18:08.153Z,994.93
2018-09-12T03:19:08.081Z,994.91
2018-09-12T03:20:08.011Z,994.89
2018-09-12T03:21:08.127Z,994.90
2018-09-12T03:23:08.119Z,994.85
2018-09-12T03:24:07.712Z,994.85
2018-09-12T03:25:07.665Z,994.88
2018-09-12T03:26:07.594Z,994.84
2018-09-12T03:27:07.517Z,994.85
2018-09-12T03:28:07.419Z,994.82
2018-09-12T03:29:07.376Z,994.83
2018-09-12T03:30:07.298Z,994.82
2018-09-12T03:31:07.201Z,994.84
2018-09-12T03:32:07.124Z,994.84
2018-09-12T03:34:07.004Z,994.82
2018-09-12T03:35:06.932Z,994.79
2018-09-12T03:36:06.831Z,994.76
2018-09-12T03:37:06.758Z,994.74
2018-09-12T03:38:06.711Z,994.73
2018-09-12T03:39:06.637Z,994.76
2018-09-12T03:40:06.568Z,994.75
2018-09-12T03:41:06.492Z,994.75
2018-09-12T03:42:06.419Z,994.77
2018-09-12T03:43:06.318Z,994.80
2018-09-12T03:44:06.244Z,994.83
2018-09-12T03:45:06.171Z,994.84
2018-09-12T03:46:06.098Z,994.81
2018-09-12T03:47:06.024Z,994.79
2018-09-12T03:48:05.985Z,994.80
2018-09-12T03:49:06.085Z,994.77
2018-09-12T03:50:05.804Z,994.77
2018-09-12T03:51:05.731Z,994.76
2018-09-12T03:52:05.688Z,994.78
2018-09-12T03:53:05.585Z,994.76
2018-09-12T03:54:05.513Z,994.74
2018-09-12T03:55:05.439Z,994.76
2018-09-12T03:56:05.365Z,994.75
2018-09-12T03:57:05.320Z,994.71
2018-09-12T03:58:05.219Z,994.77
2018-09-12T03:59:05.173Z,994.76
2018-09-12T04:00:05.072Z,994.77
2018-09-12T04:01:04.997Z,994.75
2018-09-12T04:02:04.926Z,994.74
2018-09-12T04:03:04.850Z,994.74
2018-09-12T04:05:04.704Z,994.75
2018-09-12T04:06:04.630Z,994.69
2018-09-12T04:07:04.557Z,994.72
2018-09-12T04:08:04.483Z,994.72
2018-09-12T04:09:04.436Z,994.75
2018-09-12T04:10:04.336Z,994.76
2018-09-12T04:11:04.261Z,994.71
2018-09-12T04:12:04.213Z,994.75
2018-09-12T04:13:04.142Z,994.74
2018-09-12T04:14:04.043Z,994.71
2018-09-12T04:15:04.000Z,994.71
2018-09-12T04:16:03.894Z,994.69
2018-09-12T04:17:03.820Z,994.70
2018-09-12T04:18:03.747Z,994.70
2018-09-12T04:19:03.673Z,994.68
2018-09-12T04:20:03.626Z,994.69
2018-09-12T04:21:03.525Z,994.68
2018-09-12T04:22:03.452Z,994.68
2018-09-12T04:23:03.378Z,994.65
2018-09-12T04:24:03.335Z,994.67
2018-09-12T04:25:03.253Z,994.68
2018-09-12T04:26:03.190Z,994.67
2018-09-12T04:27:03.082Z,994.66
2018-09-12T04:29:02.973Z,994.67
2018-09-12T04:30:02.863Z,994.73
2018-09-12T04:31:02.815Z,994.70
2018-09-12T04:32:02.748Z,994.69
2018-09-12T04:33:02.666Z,994.67
2018-09-12T04:34:02.594Z,994.66
2018-09-12T04:35:02.522Z,994.70
2018-09-12T04:36:02.443Z,994.65
2018-09-12T04:37:02.372Z,994.68
2018-09-12T04:38:02.505Z,994.66
2018-09-12T04:39:02.199Z,994.64
2018-09-12T04:40:02.152Z,994.67
2018-09-12T04:41:02.080Z,994.65
2018-09-12T04:42:01.980Z,994.66
2018-09-12T04:43:01.929Z,994.70
2018-09-12T04:44:01.858Z,994.66
2018-09-12T04:45:01.761Z,994.69
2018-09-12T04:46:01.684Z,994.70
2018-09-12T04:47:01.942Z,994.72
2018-09-12T04:48:01.868Z,994.71
2018-09-12T04:49:01.492Z,994.70
2018-09-12T04:50:01.395Z,994.70
2018-09-12T04:51:01.316Z,994.74
2018-09-12T04:52:01.475Z,994.72
2018-09-12T04:54:01.099Z,994.76
2018-09-12T04:55:01.050Z,994.78
2018-09-12T04:56:00.973Z,994.81
2018-09-12T04:57:00.873Z,994.78
2018-09-12T04:58:00.801Z,994.83
2018-09-12T04:59:00.728Z,994.82
2018-09-12T05:00:00.662Z,994.79
2018-09-12T05:01:00.581Z,994.82
2018-09-12T05:02:00.532Z,994.80
2018-09-12T05:03:00.439Z,994.80
2018-09-12T05:04:00.692Z,994.79
2018-09-12T05:05:00.286Z,994.80
2018-09-12T05:06:00.213Z,994.79
2018-09-12T05:07:00.139Z,994.79
2018-09-12T05:08:00.065Z,994.74
2018-09-12T05:08:59.991Z,994.77
2018-09-12T05:09:59.956Z,994.77
2018-09-12T05:10:59.844Z,994.82
2018-09-12T05:11:59.800Z,994.78
2018-09-12T05:12:59.699Z,994.78
2018-09-12T05:13:59.648Z,994.82
2018-09-12T05:14:59.549Z,994.78
2018-09-12T05:15:59.520Z,994.81
2018-09-12T05:16:59.402Z,994.78
2018-09-12T05:17:59.329Z,994.78
2018-09-12T05:18:59.283Z,994.81
2018-09-12T05:19:59.198Z,994.82
2018-09-12T05:20:59.107Z,994.81
2018-09-12T05:21:59.035Z,994.79
2018-09-12T05:22:58.960Z,994.81
2018-09-12T05:23:58.887Z,994.80
2018-09-12T05:24:58.814Z,994.75
2018-09-12T05:25:58.766Z,994.79
2018-09-12T05:26:58.691Z,994.76
2018-09-12T05:27:58.596Z,994.77
2018-09-12T05:28:58.520Z,994.76
2018-09-12T05:29:58.447Z,994.76
2018-09-12T05:30:58.373Z,994.75
2018-09-12T05:31:58.300Z,994.81
2018-09-12T05:32:58.226Z,994.76
2018-09-12T05:33:58.163Z,994.81
2018-09-12T05:34:58.109Z,994.75
2018-09-12T05:36:57.961Z,994.74
2018-09-12T05:37:58.063Z,994.74
2018-09-12T05:38:57.817Z,994.76
2018-09-12T05:39:57.740Z,994.77
2018-09-12T05:40:57.641Z,994.78
2018-09-12T05:41:57.599Z,994.81
2018-09-12T05:42:57.493Z,994.77
2018-09-12T05:43:57.449Z,994.82
2018-09-12T05:44:57.373Z,994.80
2018-09-12T05:45:57.275Z,994.85
2018-09-12T05:46:57.200Z,994.83
2018-09-12T05:47:57.128Z,994.80
2018-09-12T05:48:57.083Z,994.80
2018-09-12T05:49:57.009Z,994.81
2018-09-12T05:50:56.935Z,994.80
2018-09-12T05:51:56.835Z,994.81
2018-09-12T05:52:56.763Z,994.83
2018-09-12T05:53:56.690Z,994.82
2018-09-12T05:54:56.615Z,994.79
2018-09-12T05:55:56.545Z,994.82
2018-09-12T05:56:56.500Z,994.78
2018-09-12T05:57:56.399Z,994.78
2018-09-12T05:58:56.325Z,994.79
2018-09-12T05:59:56.252Z,994.82
2018-09-12T06:00:56.179Z,994.81
2018-09-12T06:01:56.108Z,994.81
2018-09-12T06:02:56.036Z,994.83
2018-09-12T06:03:55.960Z,994.81
2018-09-12T06:04:55.887Z,994.80
2018-09-12T06:05:55.814Z,994.79
2018-09-12T06:06:55.894Z,994.77
2018-09-12T06:07:55.668Z,994.75
2018-09-12T06:08:55.596Z,994.76
2018-09-12T06:09:55.523Z,994.75
2018-09-12T06:10:55.451Z,994.75
2018-09-12T06:11:55.376Z,994.76
2018-09-12T06:12:55.304Z,994.74
2018-09-12T06:13:55.254Z,994.73
2018-09-12T06:14:55.159Z,994.71
2018-09-12T06:15:55.086Z,994.73
2018-09-12T06:16:55.018Z,994.72
2018-09-12T06:17:54.941Z,994.74
2018-09-12T06:18:54.869Z,994.70
2018-09-12T06:19:54.796Z,994.69
2018-09-12T06:20:54.724Z,994.73
2018-09-12T06:21:54.652Z,994.66
2018-09-12T06:22:54.577Z,994.66
2018-09-12T06:23:54.508Z,994.66
2018-09-12T06:24:54.434Z,994.65
2018-09-12T06:25:54.361Z,994.66
2018-09-12T06:26:54.288Z,994.64
2018-09-12T06:27:54.221Z,994.63
2018-09-12T06:28:54.144Z,994.66
2018-09-12T06:29:54.077Z,994.65
2018-09-12T06:30:54.071Z,994.65
2018-09-12T06:31:53.927Z,994.68
2018-09-12T06:32:53.855Z,994.66
2018-09-12T06:33:53.783Z,994.67
2018-09-12T06:34:53.960Z,994.66
2018-09-12T06:35:53.637Z,994.63
2018-09-12T06:36:53.567Z,994.66
2018-09-12T06:37:53.541Z,994.64
2018-09-12T06:38:53.422Z,994.64
2018-09-12T06:39:53.364Z,994.64
2018-09-12T06:40:53.282Z,994.60
2018-09-12T06:41:53.211Z,994.65
2018-09-12T06:42:53.134Z,994.64
2018-09-12T06:43:53.071Z,994.65
2018-09-12T06:44:52.991Z,994.68
2018-09-12T06:45:52.919Z,994.68
2018-09-12T06:46:52.875Z,994.73
2018-09-12T06:47:52.774Z,994.70
2018-09-12T06:48:52.704Z,994.72
2018-09-12T06:49:52.632Z,994.78
2018-09-12T06:50:52.559Z,994.77
2018-09-12T06:51:52.491Z,994.77
2018-09-12T06:52:52.416Z,994.77
2018-09-12T06:53:52.345Z,994.76
2018-09-12T06:54:52.273Z,994.74
2018-09-12T06:55:52.201Z,994.71
2018-09-12T06:56:52.129Z,994.70
2018-09-12T06:57:52.059Z,994.70
2018-09-12T06:58:51.987Z,994.69
2018-09-12T06:59:51.918Z,994.66
2018-09-12T07:02:21.822Z,994.67
2018-09-12T07:03:21.751Z,994.65
2018-09-12T07:04:21.679Z,994.68
2018-09-12T07:05:21.860Z,994.68
2018-09-12T07:07:29.044Z,994.68
2018-09-12T07:11:47.248Z,994.71
2018-09-12T07:12:47.046Z,994.70
2018-09-12T07:13:47.000Z,994.71
2018-09-12T07:14:46.903Z,994.74
2018-09-12T07:15:46.832Z,994.72
2018-09-12T07:16:46.766Z,994.71
2018-09-12T07:17:49.310Z,994.67
2018-09-12T07:18:49.301Z,994.70
2018-09-12T07:19:49.370Z,994.74
2018-09-12T07:20:49.096Z,994.73
2018-09-12T07:21:46.403Z,994.76
2018-09-12T07:22:46.333Z,994.74
2018-09-12T07:23:46.261Z,994.77
2018-09-12T07:24:46.305Z,994.73
2018-09-12T07:25:46.119Z,994.73
2018-09-12T07:26:46.047Z,994.73
2018-09-12T07:27:45.976Z,994.79
2018-09-12T07:28:45.905Z,994.73
2018-09-12T07:29:45.849Z,994.78
2018-09-12T07:30:45.763Z,994.73
2018-09-12T07:31:45.694Z,994.74
2018-09-12T07:32:45.623Z,994.79
2018-09-12T07:33:45.554Z,994.78
2018-09-12T07:34:45.480Z,994.79
2018-09-12T07:35:45.413Z,994.77
2018-09-12T07:36:45.340Z,994.76
2018-09-12T07:37:45.268Z,994.78
2018-09-12T07:39:45.128Z,994.81
2018-09-12T07:40:45.084Z,994.87
2018-09-12T07:41:45.505Z,994.79
2018-09-12T07:43:42.417Z,994.84
2018-09-12T07:44:42.345Z,994.83
2018-09-12T07:45:42.275Z,994.84
2018-09-12T07:46:42.205Z,994.86
2018-09-12T07:47:42.136Z,994.86
2018-09-12T07:48:42.066Z,994.85
2018-09-12T07:49:41.995Z,994.82
2018-09-12T07:50:41.926Z,994.83
2018-09-12T07:51:41.857Z,994.82
2018-09-12T07:52:41.787Z,994.84
2018-09-12T07:53:41.716Z,994.86
2018-09-12T07:54:41.645Z,994.86
2018-09-12T07:55:41.577Z,994.88
2018-09-12T07:56:41.579Z,994.89
2018-09-12T07:57:41.436Z,994.87
2018-09-12T07:58:41.367Z,994.86
2018-09-12T07:59:41.297Z,994.88
2018-09-12T08:00:41.246Z,994.89
2018-09-12T08:01:41.160Z,994.90
2018-09-12T08:02:41.088Z,994.83
2018-09-12T08:03:41.019Z,994.83
2018-09-12T08:04:40.952Z,994.82
2018-09-12T08:05:40.880Z,994.82
2018-09-12T08:06:40.809Z,994.86
2018-09-12T08:07:40.742Z,994.84
2018-09-12T08:08:40.671Z,994.85
2018-09-12T08:09:40.601Z,994.90
2018-09-12T08:10:40.533Z,994.93
2018-09-12T08:11:40.466Z,994.96
2018-09-12T08:12:40.395Z,994.95
2018-09-12T08:13:40.323Z,994.96
2018-09-12T08:14:40.255Z,994.98
2018-09-12T08:15:40.186Z,994.97
2018-09-12T08:16:40.121Z,994.99
2018-09-12T08:17:40.074Z,994.91
2018-09-12T08:18:39.978Z,994.95
2018-09-12T08:19:39.910Z,994.97
2018-09-12T08:20:39.840Z,994.96
2018-09-12T08:21:39.770Z,994.97
2018-09-12T08:22:39.701Z,994.97
2018-09-12T08:23:39.633Z,994.93
2018-09-12T08:24:39.563Z,994.92
2018-09-12T08:25:39.493Z,994.91
2018-09-12T08:26:39.474Z,994.92
2018-09-12T08:27:39.358Z,994.95
2018-09-12T08:28:39.287Z,994.87
2018-09-12T08:29:39.217Z,994.84
2018-09-12T08:30:39.150Z,994.87
2018-09-12T08:31:39.086Z,994.92
2018-09-12T08:32:39.012Z,994.82
2018-09-12T08:33:38.941Z,994.81
2018-09-12T08:34:38.872Z,994.86
2018-09-12T08:35:38.805Z,994.84
2018-09-12T08:36:38.735Z,994.83
2018-09-12T08:37:38.665Z,994.83
2018-09-12T08:38:38.596Z,994.82
2018-09-12T08:39:38.528Z,994.82
2018-09-12T08:40:38.459Z,994.85
2018-09-12T08:41:38.389Z,994.83
2018-09-12T08:42:38.386Z,994.86
2018-09-12T08:43:38.252Z,994.88
2018-09-12T08:44:38.183Z,994.84
2018-09-12T08:45:38.114Z,994.89
2018-09-12T08:46:38.048Z,994.89
2018-09-12T08:47:38.018Z,994.84
2018-09-12T08:48:37.911Z,994.86
2018-09-12T08:49:37.838Z,994.90
2018-09-12T08:50:37.769Z,994.83
2018-09-12T08:51:37.702Z,994.85
2018-09-12T08:52:37.633Z,994.83
2018-09-12T08:53:37.564Z,994.79
2018-09-12T08:54:37.495Z,994.79
2018-09-12T08:55:37.430Z,994.78
2018-09-12T08:56:37.360Z,994.83
2018-09-12T08:57:37.289Z,994.84
2018-09-12T08:58:37.220Z,994.82
2018-09-12T08:59:37.152Z,994.86
2018-09-12T09:00:37.088Z,994.83
2018-09-12T09:01:37.060Z,994.78
2018-09-12T09:02:36.946Z,994.80
2018-09-12T09:03:36.877Z,994.77
2018-09-12T09:04:36.809Z,994.75
2018-09-12T09:05:36.740Z,994.79
2018-09-12T09:06:36.671Z,994.75
2018-09-12T09:07:36.604Z,994.75
2018-09-12T09:08:36.534Z,994.74
2018-09-12T09:09:36.467Z,994.77
2018-09-12T09:10:36.429Z,994.80
2018-09-12T09:11:36.330Z,994.79
2018-09-12T09:12:36.261Z,994.76
2018-09-12T09:13:36.191Z,994.77
2018-09-12T09:14:36.124Z,994.80
2018-09-12T09:15:36.055Z,994.78
2018-09-12T09:16:35.987Z,994.79
2018-09-12T09:17:35.918Z,994.81
2018-09-12T09:18:35.849Z,994.78
2018-09-12T09:19:35.782Z,994.80
2018-09-12T09:20:35.717Z,994.79
2018-09-12T09:21:35.645Z,994.77
2018-09-12T09:22:35.576Z,994.76
2018-09-12T09:23:35.572Z,994.79
2018-09-12T09:24:35.439Z,994.72
2018-09-12T09:25:35.373Z,994.78
2018-09-12T09:26:35.302Z,994.69
2018-09-12T09:27:35.234Z,994.75
2018-09-12T09:28:35.166Z,994.71
2018-09-12T09:29:35.099Z,994.68
2018-09-12T09:30:35.028Z,994.72
2018-09-12T09:31:34.960Z,994.72
2018-09-12T09:32:34.941Z,994.64
2018-09-12T09:33:34.823Z,994.69
2018-09-12T09:34:34.808Z,994.73
2018-09-12T09:35:34.951Z,994.67
2018-09-12T09:36:34.620Z,994.71
2018-09-12T09:37:34.553Z,994.72
2018-09-12T09:38:34.487Z,994.69
2018-09-12T09:39:34.416Z,994.67
2018-09-12T09:40:34.347Z,994.69
2018-09-12T09:41:34.278Z,994.66
2018-09-12T09:42:34.210Z,994.68
2018-09-12T09:43:34.143Z,994.65
2018-09-12T09:44:34.074Z,994.63
2018-09-12T09:45:34.007Z,994.67
2018-09-12T09:46:33.938Z,994.63
2018-09-12T09:47:33.870Z,994.64
2018-09-12T09:48:33.803Z,994.59
2018-09-12T09:49:33.738Z,994.60
2018-09-12T09:50:33.665Z,994.63
2018-09-12T09:51:33.599Z,994.64
2018-09-12T09:52:33.532Z,994.63
2018-09-12T09:53:33.461Z,994.63
2018-09-12T09:54:33.397Z,994.61
2018-09-12T09:55:33.326Z,994.57
2018-09-12T09:56:33.258Z,994.59
2018-09-12T09:57:33.189Z,994.56
2018-09-12T09:58:33.121Z,994.57
2018-09-12T09:59:33.058Z,994.54
2018-09-12T10:00:32.987Z,994.55
2018-09-12T10:01:32.918Z,994.58
2018-09-12T10:02:32.851Z,994.53
2018-09-12T10:03:32.782Z,994.59
2018-09-12T10:04:32.715Z,994.58
2018-09-12T10:05:32.646Z,994.58
2018-09-12T10:06:32.579Z,994.58
2018-09-12T10:07:32.515Z,994.59
2018-09-12T10:08:32.444Z,994.52
2018-09-12T10:09:32.377Z,994.49
2018-09-12T10:10:32.308Z,994.52
2018-09-12T10:11:32.240Z,994.53
2018-09-12T10:12:32.174Z,994.46
2018-09-12T10:13:32.106Z,994.48
2018-09-12T10:14:32.045Z,994.48
2018-09-12T10:15:31.971Z,994.48
2018-09-12T10:16:31.903Z,994.46
2018-09-12T10:17:31.835Z,994.48
2018-09-12T10:18:31.768Z,994.47
2018-09-12T10:19:31.700Z,994.47
2018-09-12T10:20:31.632Z,994.49
2018-09-12T10:21:31.568Z,994.50
2018-09-12T10:22:31.498Z,994.51
2018-09-12T10:23:31.431Z,994.47
2018-09-12T10:24:31.365Z,994.48
2018-09-12T10:25:31.296Z,994.53
2018-09-12T10:26:31.228Z,994.45
2018-09-12T10:27:31.160Z,994.44
2018-09-12T10:28:31.096Z,994.52
2018-09-12T10:29:31.028Z,994.42
2018-09-12T10:30:30.960Z,994.46
2018-09-12T10:31:30.894Z,994.40
2018-09-12T10:32:30.830Z,994.44
2018-09-12T10:33:30.760Z,994.36
2018-09-12T10:34:30.691Z,994.42
2018-09-12T10:35:30.624Z,994.37
2018-09-12T10:36:30.558Z,994.38
2018-09-12T10:37:30.490Z,994.37
2018-09-12T10:38:30.427Z,994.32
2018-09-12T10:39:30.357Z,994.39
2018-09-12T10:40:30.291Z,994.32
2018-09-12T10:41:30.222Z,994.36
2018-09-12T10:42:30.155Z,994.34
2018-09-12T10:43:30.090Z,994.32
2018-09-12T10:44:30.022Z,994.32
2018-09-12T10:45:29.955Z,994.31
2018-09-12T10:46:29.888Z,994.44
2018-09-12T10:47:29.821Z,994.34
2018-09-12T10:48:29.757Z,994.34
2018-09-12T10:49:29.687Z,994.33
2018-09-12T10:51:29.555Z,994.30
2018-09-12T10:52:29.488Z,994.29
2018-09-12T10:53:29.421Z,994.29
2018-09-12T10:54:29.354Z,994.26
2018-09-12T10:55:29.289Z,994.36
2018-09-12T10:56:29.223Z,994.29
2018-09-12T10:57:29.154Z,994.28
2018-09-12T10:58:29.090Z,994.28
2018-09-12T10:59:29.023Z,994.31
2018-09-12T11:00:28.956Z,994.31
2018-09-12T11:01:28.890Z,994.32
2018-09-12T11:02:28.849Z,994.35
2018-09-12T11:03:28.757Z,994.31
2018-09-12T11:04:28.729Z,994.46
2018-09-12T11:05:28.650Z,994.37
2018-09-12T11:06:28.586Z,994.31
2018-09-12T11:07:28.493Z,994.24
2018-09-12T11:08:28.429Z,994.29
2018-09-12T11:09:28.362Z,994.34
2018-09-12T11:10:28.298Z,994.33
2018-09-12T11:11:28.229Z,994.25
2018-09-12T11:12:28.164Z,994.22
2018-09-12T11:13:28.097Z,994.26
2018-09-12T11:14:28.034Z,994.18
2018-09-12T11:15:27.966Z,994.17
2018-09-12T11:16:27.902Z,994.16
2018-09-12T11:17:27.836Z,994.18
2018-09-12T11:18:27.771Z,994.18
2018-09-12T11:19:27.704Z,994.18
2018-09-12T11:20:27.663Z,994.13
2018-09-12T11:21:27.573Z,994.18
2018-09-12T11:22:27.740Z,994.13
2018-09-12T11:23:27.447Z,994.17
2018-09-12T11:24:27.377Z,994.17
2018-09-12T11:25:27.311Z,994.18
2018-09-12T11:26:27.247Z,994.10
2018-09-12T11:27:27.180Z,994.06
2018-09-12T11:28:27.116Z,994.02
2018-09-12T11:29:27.049Z,994.02
2018-09-12T11:30:26.986Z,994.15
2018-09-12T11:31:26.934Z,994.26
2018-09-12T11:32:30.489Z,994.24
2018-09-12T11:33:26.791Z,994.25
2018-09-12T11:34:26.726Z,994.10
2018-09-12T11:35:26.665Z,994.06
2018-09-12T11:36:26.599Z,994.05
2018-09-12T11:37:26.534Z,994.12
2018-09-12T11:38:26.471Z,994.05
2018-09-12T11:39:26.408Z,994.10
2018-09-12T11:40:26.348Z,994.28
2018-09-12T11:41:26.282Z,994.31
2018-09-12T11:42:26.221Z,994.19
2018-09-12T11:43:26.163Z,994.27
2018-09-12T11:44:26.097Z,994.30
2018-09-12T11:45:26.033Z,994.07
2018-09-12T11:46:25.977Z,994.05
2018-09-12T11:48:25.847Z,994.12
2018-09-12T11:49:25.785Z,994.25
2018-09-12T11:50:25.726Z,994.29
2018-09-12T11:51:25.665Z,994.28
2018-09-12T11:52:25.605Z,994.27
2018-09-12T11:53:25.545Z,994.21
2018-09-12T11:54:25.484Z,994.19
2018-09-12T11:55:25.478Z,994.19
2018-09-12T11:56:25.365Z,994.20
2018-09-12T11:57:25.307Z,994.29
2018-09-12T11:58:25.252Z,994.37
2018-09-12T11:59:25.189Z,994.30
2018-09-12T12:01:12.865Z,994.17
2018-09-12T12:02:15.424Z,994.28
2018-09-12T12:03:12.707Z,994.30
2018-09-12T12:04:12.642Z,994.30
2018-09-12T12:05:12.584Z,994.25
2018-09-12T12:06:12.654Z,994.29
2018-09-12T12:07:12.470Z,994.24
2018-09-12T12:08:12.413Z,994.29
2018-09-12T12:09:12.358Z,994.15
2018-09-12T12:10:12.299Z,994.23
2018-09-12T12:11:15.471Z,994.26
2018-09-12T12:12:13.400Z,994.23
2018-09-12T12:14:04.643Z,994.18
2018-09-12T12:15:04.586Z,994.22
2018-09-12T12:16:04.529Z,994.16
2018-09-12T12:17:04.724Z,994.17
2018-09-12T12:18:04.416Z,994.10
2018-09-12T12:19:04.364Z,994.18
2018-09-12T12:20:04.308Z,994.21
2018-09-12T12:21:04.247Z,994.12
2018-09-12T12:22:04.191Z,994.18
2018-09-12T12:23:04.136Z,994.12
2018-09-12T12:24:04.078Z,994.04
2018-09-12T12:25:04.022Z,994.06
2018-09-12T12:26:03.965Z,994.15
2018-09-12T12:27:03.908Z,994.15
2018-09-12T12:28:03.852Z,994.12
2018-09-12T12:29:03.797Z,994.15
2018-09-12T12:30:03.738Z,994.02
2018-09-12T12:31:03.681Z,994.15
2018-09-12T12:32:03.625Z,994.12
2018-09-12T12:33:03.568Z,994.10
2018-09-12T12:34:03.511Z,994.05
2018-09-12T12:35:03.454Z,994.11
2018-09-12T12:36:03.398Z,994.08
2018-09-12T12:37:03.341Z,993.99
2018-09-12T12:38:03.285Z,993.90
2018-09-12T12:39:03.227Z,994.00
2018-09-12T12:40:03.174Z,993.88
2018-09-12T12:41:03.114Z,993.86
2018-09-12T12:42:03.062Z,993.78
2018-09-12T12:43:03.001Z,993.85
2018-09-12T12:44:02.944Z,993.91
2018-09-12T12:45:02.889Z,993.82
2018-09-12T12:46:02.831Z,993.73